sensor_id;sensor_type;location;lat;lon;timestamp;pressure;altitude;pressure_sealevel;temperature;humidity
41312;BME280;27061;41.648;24.568;2023-04-07T00:01:24;85270.25;;;4.07;69.80
41312;BME280;27061;41.648;24.568;2023-04-07T00:03:52;85266.81;;;4.04;69.33
41312;BME280;27061;41.648;24.568;2023-04-07T00:06:19;85259.31;;;3.87;69.42
41312;BME280;27061;41.648;24.568;2023-04-07T00:08:46;85236.72;;;3.74;69.23
41312;BME280;27061;41.648;24.568;2023-04-07T00:11:13;85251.78;;;3.89;69.48
41312;BME280;27061;41.648;24.568;2023-04-07T00:13:41;85226.47;;;3.71;68.62
41312;BME280;27061;41.648;24.568;2023-04-07T00:16:08;85274.38;;;4.00;68.30
41312;BME280;27061;41.648;24.568;2023-04-07T00:18:35;85272.31;;;4.00;68.83
41312;BME280;27061;41.648;24.568;2023-04-07T00:21:02;85288.06;;;4.16;67.66
41312;BME280;27061;41.648;24.568;2023-04-07T00:23:29;85229.88;;;3.79;67.32
41312;BME280;27061;41.648;24.568;2023-04-07T00:25:57;85250.41;;;3.88;67.92
41312;BME280;27061;41.648;24.568;2023-04-07T00:28:24;85204.53;;;3.50;68.88
41312;BME280;27061;41.648;24.568;2023-04-07T00:30:51;85258.63;;;3.90;69.31
41312;BME280;27061;41.648;24.568;2023-04-07T00:33:18;85283.28;;;4.09;69.50
41312;BME280;27061;41.648;24.568;2023-04-07T00:35:45;85240.13;;;3.83;69.42
41312;BME280;27061;41.648;24.568;2023-04-07T00:38:12;85234.66;;;3.68;69.33
41312;BME280;27061;41.648;24.568;2023-04-07T00:40:39;85241.50;;;3.76;69.12
41312;BME280;27061;41.648;24.568;2023-04-07T00:43:06;85273.00;;;3.99;68.87
41312;BME280;27061;41.648;24.568;2023-04-07T00:45:33;85278.50;;;4.11;69.36
41312;BME280;27061;41.648;24.568;2023-04-07T00:48:02;85283.97;;;4.09;69.81
41312;BME280;27061;41.648;24.568;2023-04-07T00:50:29;85255.19;;;3.86;70.56
41312;BME280;27061;41.648;24.568;2023-04-07T00:52:57;85281.22;;;4.09;70.30
41312;BME280;27061;41.648;24.568;2023-04-07T00:55:24;85260.69;;;3.98;70.44
41312;BME280;27061;41.648;24.568;2023-04-07T00:57:51;85275.75;;;3.99;70.95
41312;BME280;27061;41.648;24.568;2023-04-07T01:00:18;85281.22;;;4.07;70.66
41312;BME280;27061;41.648;24.568;2023-04-07T01:03:08;85274.38;;;4.10;70.35
41312;BME280;27061;41.648;24.568;2023-04-07T01:05:56;85177.16;;;3.34;69.45
41312;BME280;27061;41.648;24.568;2023-04-07T01:11:16;85238.06;;;3.83;68.79
41312;BME280;27061;41.648;24.568;2023-04-07T01:13:50;85277.09;;;4.04;67.51
41312;BME280;27061;41.648;24.568;2023-04-07T01:16:45;85263.41;;;3.84;67.86
41312;BME280;27061;41.648;24.568;2023-04-07T01:19:42;85276.44;;;4.01;68.20
41312;BME280;27061;41.648;24.568;2023-04-07T01:22:42;85272.31;;;3.86;68.62
41312;BME280;27061;41.648;24.568;2023-04-07T01:30:31;85292.16;;;3.95;68.01
41312;BME280;27061;41.648;24.568;2023-04-07T01:33:00;85232.59;;;3.55;68.44
41312;BME280;27061;41.648;24.568;2023-04-07T01:35:31;85265.47;;;3.79;68.70
41312;BME280;27061;41.648;24.568;2023-04-07T01:37:59;85205.19;;;3.33;68.58
41312;BME280;27061;41.648;24.568;2023-04-07T01:40:28;85244.22;;;3.63;68.78
41312;BME280;27061;41.648;24.568;2023-04-07T01:42:56;85258.59;;;3.62;69.81
41312;BME280;27061;41.648;24.568;2023-04-07T01:45:25;85253.81;;;3.66;69.41
41312;BME280;27061;41.648;24.568;2023-04-07T01:47:53;85253.81;;;3.58;69.68
41312;BME280;27061;41.648;24.568;2023-04-07T01:50:21;85297.63;;;3.87;69.30
41312;BME280;27061;41.648;24.568;2023-04-07T01:52:49;85237.38;;;3.50;70.06
41312;BME280;27061;41.648;24.568;2023-04-07T01:55:17;85275.03;;;3.66;68.13
41312;BME280;27061;41.648;24.568;2023-04-07T01:57:57;85267.50;;;3.68;68.91
41312;BME280;27061;41.648;24.568;2023-04-07T02:00:24;85201.09;;;3.17;69.07
41312;BME280;27061;41.648;24.568;2023-04-07T02:02:58;85209.97;;;3.22;68.83
41312;BME280;27061;41.648;24.568;2023-04-07T02:05:27;85281.19;;;3.83;69.95
41312;BME280;27061;41.648;24.568;2023-04-07T02:08:03;85288.03;;;3.76;70.66
41312;BME280;27061;41.648;24.568;2023-04-07T02:10:36;85286.00;;;3.76;70.64
41312;BME280;27061;41.648;24.568;2023-04-07T02:13:06;85283.94;;;3.75;70.09
41312;BME280;27061;41.648;24.568;2023-04-07T02:15:35;85251.06;;;3.52;69.24
41312;BME280;27061;41.648;24.568;2023-04-07T02:18:04;85269.56;;;3.60;69.29
41312;BME280;27061;41.648;24.568;2023-04-07T02:20:34;85256.53;;;3.50;69.75
41312;BME280;27061;41.648;24.568;2023-04-07T02:23:02;85270.22;;;3.58;69.24
41312;BME280;27061;41.648;24.568;2023-04-07T02:25:30;85289.41;;;3.77;69.84
41312;BME280;27061;41.648;24.568;2023-04-07T02:27:59;85280.50;;;3.66;68.62
41312;BME280;27061;41.648;24.568;2023-04-07T02:30:27;85257.88;;;3.43;68.54
41312;BME280;27061;41.648;24.568;2023-04-07T02:32:54;85253.09;;;3.42;68.45
41312;BME280;27061;41.648;24.568;2023-04-07T02:35:22;85300.34;;;3.73;68.90
41312;BME280;27061;41.648;24.568;2023-04-07T02:37:49;85270.22;;;3.48;68.84
41312;BME280;27061;41.648;24.568;2023-04-07T02:40:17;85282.56;;;3.72;69.58
41312;BME280;27061;41.648;24.568;2023-04-07T02:42:45;85299.66;;;3.74;69.63
41312;BME280;27061;41.648;24.568;2023-04-07T02:45:15;85241.44;;;3.25;69.66
41312;BME280;27061;41.648;24.568;2023-04-07T02:47:42;85290.09;;;3.59;68.90
41312;BME280;27061;41.648;24.568;2023-04-07T02:50:10;85301.03;;;3.73;68.22
41312;BME280;27061;41.648;24.568;2023-04-07T02:52:37;85300.34;;;3.73;68.73
41312;BME280;27061;41.648;24.568;2023-04-07T02:55:09;85303.09;;;3.75;68.07
41312;BME280;27061;41.648;24.568;2023-04-07T02:57:37;85261.31;;;3.44;68.58
41312;BME280;27061;41.648;24.568;2023-04-07T03:00:09;85297.59;;;3.60;68.55
41312;BME280;27061;41.648;24.568;2023-04-07T03:02:55;85282.53;;;3.55;68.81
41312;BME280;27061;41.648;24.568;2023-04-07T03:05:23;85294.19;;;3.72;68.24
41312;BME280;27061;41.648;24.568;2023-04-07T03:07:50;85307.19;;;3.72;68.94
41312;BME280;27061;41.648;24.568;2023-04-07T03:10:17;85264.75;;;3.48;68.57
41312;BME280;27061;41.648;24.568;2023-04-07T03:12:44;85296.94;;;3.72;68.16
41312;BME280;27061;41.648;24.568;2023-04-07T03:15:11;85277.06;;;3.53;68.50
41312;BME280;27061;41.648;24.568;2023-04-07T03:17:44;85286.66;;;3.62;67.95
41312;BME280;27061;41.648;24.568;2023-04-07T03:20:11;85231.84;;;3.14;67.94
41312;BME280;27061;41.648;24.568;2023-04-07T03:22:39;85289.38;;;3.64;67.47
41312;BME280;27061;41.648;24.568;2023-04-07T03:25:13;85296.91;;;3.62;66.95
41312;BME280;27061;41.648;24.568;2023-04-07T03:27:40;85289.38;;;3.62;67.86
41312;BME280;27061;41.648;24.568;2023-04-07T03:30:10;85279.78;;;3.45;68.13
41312;BME280;27061;41.648;24.568;2023-04-07T03:32:37;85286.63;;;3.50;67.44
41312;BME280;27061;41.648;24.568;2023-04-07T03:35:05;85246.88;;;3.21;68.23
41312;BME280;27061;41.648;24.568;2023-04-07T03:37:32;85258.53;;;3.29;68.32
41312;BME280;27061;41.648;24.568;2023-04-07T03:39:59;85296.22;;;3.57;68.38
41312;BME280;27061;41.648;24.568;2023-04-07T03:42:31;85299.66;;;3.62;68.10
41312;BME280;27061;41.648;24.568;2023-04-07T03:45:02;85304.44;;;3.57;68.24
41312;BME280;27061;41.648;24.568;2023-04-07T03:47:32;85277.03;;;3.39;68.80
41312;BME280;27061;41.648;24.568;2023-04-07T03:50:01;85304.41;;;3.51;68.69
41312;BME280;27061;41.648;24.568;2023-04-07T03:52:33;85267.41;;;3.20;67.69
41312;BME280;27061;41.648;24.568;2023-04-07T03:55:09;85307.84;;;3.48;68.27
41312;BME280;27061;41.648;24.568;2023-04-07T03:57:36;85306.47;;;3.49;68.45
41312;BME280;27061;41.648;24.568;2023-04-07T04:00:04;85279.03;;;3.24;67.60
41312;BME280;27061;41.648;24.568;2023-04-07T04:02:41;85311.28;;;3.54;66.79
41312;BME280;27061;41.648;24.568;2023-04-07T04:05:12;85296.19;;;3.37;67.14
41312;BME280;27061;41.648;24.568;2023-04-07T04:07:40;85301.66;;;3.41;66.29
41312;BME280;27061;41.648;24.568;2023-04-07T04:10:07;85287.94;;;3.29;65.45
41312;BME280;27061;41.648;24.568;2023-04-07T04:12:39;85300.28;;;3.36;65.92
41312;BME280;27061;41.648;24.568;2023-04-07T04:15:09;85291.34;;;3.21;67.00
41312;BME280;27061;41.648;24.568;2023-04-07T04:17:38;85259.84;;;3.10;68.48
41312;BME280;27061;41.648;24.568;2023-04-07T04:20:06;85278.31;;;3.10;68.58
41312;BME280;27061;41.648;24.568;2023-04-07T04:22:42;85217.31;;;2.67;68.63
41312;BME280;27061;41.648;24.568;2023-04-07T04:25:10;85320.81;;;3.35;69.28
41312;BME280;27061;41.648;24.568;2023-04-07T04:27:39;85289.91;;;3.08;69.22
41312;BME280;27061;41.648;24.568;2023-04-07T04:30:19;85319.44;;;3.38;69.08
41312;BME280;27061;41.648;24.568;2023-04-07T04:32:53;85329.69;;;3.40;69.19
41312;BME280;27061;41.648;24.568;2023-04-07T04:35:29;85319.41;;;3.30;69.70
41312;BME280;27061;41.648;24.568;2023-04-07T04:38:09;85330.38;;;3.40;69.85
41312;BME280;27061;41.648;24.568;2023-04-07T04:40:41;85324.22;;;3.42;69.74
41312;BME280;27061;41.648;24.568;2023-04-07T04:43:08;85335.88;;;3.44;70.36
41312;BME280;27061;41.648;24.568;2023-04-07T04:45:38;85337.91;;;3.40;70.08
41312;BME280;27061;41.648;24.568;2023-04-07T04:48:06;85294.69;;;3.02;69.34
41312;BME280;27061;41.648;24.568;2023-04-07T04:50:34;85345.44;;;3.37;69.98
41312;BME280;27061;41.648;24.568;2023-04-07T04:53:07;85350.91;;;3.41;70.22
41312;BME280;27061;41.648;24.568;2023-04-07T04:55:35;85235.75;;;2.54;71.23
41312;BME280;27061;41.648;24.568;2023-04-07T04:58:03;85348.81;;;3.29;69.32
41312;BME280;27061;41.648;24.568;2023-04-07T05:00:42;85334.41;;;3.21;69.76
41312;BME280;27061;41.648;24.568;2023-04-07T05:03:09;85353.63;;;3.39;69.67
41312;BME280;27061;41.648;24.568;2023-04-07T05:05:40;85322.16;;;3.28;69.54
41312;BME280;27061;41.648;24.568;2023-04-07T05:08:09;85349.53;;;3.40;69.28
41312;BME280;27061;41.648;24.568;2023-04-07T05:10:38;85350.25;;;3.49;69.42
41312;BME280;27061;41.648;24.568;2023-04-07T05:13:11;85349.56;;;3.50;69.29
41312;BME280;27061;41.648;24.568;2023-04-07T05:15:40;85333.75;;;3.28;69.46
41312;BME280;27061;41.648;24.568;2023-04-07T05:18:10;85330.34;;;3.26;70.36
41312;BME280;27061;41.648;24.568;2023-04-07T05:20:37;85357.81;;;3.54;70.55
41312;BME280;27061;41.648;24.568;2023-04-07T05:23:05;85353.69;;;3.47;68.57
41312;BME280;27061;41.648;24.568;2023-04-07T05:25:34;85345.47;;;3.45;69.86
41312;BME280;27061;41.648;24.568;2023-04-07T05:28:04;85312.47;;;3.01;70.61
41312;BME280;27061;41.648;24.568;2023-04-07T05:30:31;85357.78;;;3.48;70.76
41312;BME280;27061;41.648;24.568;2023-04-07T05:32:59;85350.22;;;3.37;72.08
41312;BME280;27061;41.648;24.568;2023-04-07T05:35:36;85356.41;;;3.45;72.09
41312;BME280;27061;41.648;24.568;2023-04-07T05:38:04;85298.16;;;3.14;70.69
41312;BME280;27061;41.648;24.568;2023-04-07T05:40:31;85319.41;;;3.30;71.41
41312;BME280;27061;41.648;24.568;2023-04-07T05:43:02;85330.38;;;3.42;71.71
41312;BME280;27061;41.648;24.568;2023-04-07T05:45:32;85347.56;;;3.59;71.15
41312;BME280;27061;41.648;24.568;2023-04-07T05:47:59;85361.25;;;3.65;71.67
41312;BME280;27061;41.648;24.568;2023-04-07T05:50:36;85352.34;;;3.62;71.04
41312;BME280;27061;41.648;24.568;2023-04-07T05:53:07;85329.72;;;3.50;70.34
41312;BME280;27061;41.648;24.568;2023-04-07T05:55:34;85351.69;;;3.66;70.86
41312;BME280;27061;41.648;24.568;2023-04-07T05:58:03;85315.38;;;3.47;71.06
41312;BME280;27061;41.648;24.568;2023-04-07T06:00:32;85336.63;;;3.67;70.87
41312;BME280;27061;41.648;24.568;2023-04-07T06:03:07;85345.53;;;3.70;70.92
41312;BME280;27061;41.648;24.568;2023-04-07T06:05:47;85330.44;;;3.54;70.95
41312;BME280;27061;41.648;24.568;2023-04-07T06:08:14;85364.75;;;3.92;71.22
41312;BME280;27061;41.648;24.568;2023-04-07T06:10:43;85375.00;;;3.85;72.28
41312;BME280;27061;41.648;24.568;2023-04-07T06:13:11;85360.59;;;3.85;72.38
41312;BME280;27061;41.648;24.568;2023-04-07T06:15:38;85319.50;;;3.56;71.67
41312;BME280;27061;41.648;24.568;2023-04-07T06:18:05;85374.34;;;3.91;72.80
41312;BME280;27061;41.648;24.568;2023-04-07T06:20:32;85359.94;;;3.80;72.54
41312;BME280;27061;41.648;24.568;2023-04-07T06:22:59;85383.22;;;3.93;72.41
41312;BME280;27061;41.648;24.568;2023-04-07T06:25:27;85336.63;;;3.71;72.03
41312;BME280;27061;41.648;24.568;2023-04-07T06:27:54;85323.56;;;3.51;72.29
41312;BME280;27061;41.648;24.568;2023-04-07T06:30:22;85344.84;;;3.69;72.40
41312;BME280;27061;41.648;24.568;2023-04-07T06:32:50;85371.56;;;3.93;72.62
41312;BME280;27061;41.648;24.568;2023-04-07T06:35:17;85397.63;;;4.02;74.02
41312;BME280;27061;41.648;24.568;2023-04-07T06:37:44;85366.09;;;3.85;73.64
41312;BME280;27061;41.648;24.568;2023-04-07T06:40:12;85383.22;;;3.89;74.57
41312;BME280;27061;41.648;24.568;2023-04-07T06:42:39;85312.63;;;3.47;75.11
41312;BME280;27061;41.648;24.568;2023-04-07T06:45:16;85404.50;;;4.15;74.10
41312;BME280;27061;41.648;24.568;2023-04-07T06:47:43;85370.22;;;3.90;74.31
41312;BME280;27061;41.648;24.568;2023-04-07T06:50:10;85374.31;;;3.85;75.23
41312;BME280;27061;41.648;24.568;2023-04-07T06:52:37;85401.78;;;4.19;75.12
41312;BME280;27061;41.648;24.568;2023-04-07T06:55:04;85388.06;;;4.17;75.19
41312;BME280;27061;41.648;24.568;2023-04-07T06:57:33;85407.28;;;4.31;77.13
41312;BME280;27061;41.648;24.568;2023-04-07T07:00:00;85374.38;;;4.11;76.43
41312;BME280;27061;41.648;24.568;2023-04-07T07:02:27;85401.78;;;4.23;74.17
41312;BME280;27061;41.648;24.568;2023-04-07T07:04:54;85409.34;;;4.33;75.40
41312;BME280;27061;41.648;24.568;2023-04-07T07:07:21;85413.47;;;4.44;76.09
41312;BME280;27061;41.648;24.568;2023-04-07T07:09:48;85414.84;;;4.53;75.05
41312;BME280;27061;41.648;24.568;2023-04-07T07:12:16;85366.13;;;4.05;75.44
41312;BME280;27061;41.648;24.568;2023-04-07T07:14:43;85420.28;;;4.45;74.25
41312;BME280;27061;41.648;24.568;2023-04-07T07:17:11;85394.91;;;4.26;73.00
41312;BME280;27061;41.648;24.568;2023-04-07T07:19:37;85416.88;;;4.59;73.55
41312;BME280;27061;41.648;24.568;2023-04-07T07:22:05;85427.16;;;4.64;73.34
41312;BME280;27061;41.648;24.568;2023-04-07T07:24:32;85383.97;;;4.26;72.51
41312;BME280;27061;41.648;24.568;2023-04-07T07:26:59;85407.97;;;4.50;73.43
41312;BME280;27061;41.648;24.568;2023-04-07T07:29:28;85399.03;;;4.46;70.64
41312;BME280;27061;41.648;24.568;2023-04-07T07:31:55;85377.13;;;4.37;71.79
41312;BME280;27061;41.648;24.568;2023-04-07T07:34:22;85437.44;;;4.58;70.49
41312;BME280;27061;41.648;24.568;2023-04-07T07:36:49;85397.66;;;4.34;66.54
41312;BME280;27061;41.648;24.568;2023-04-07T07:39:16;85373.00;;;4.26;66.61
41312;BME280;27061;41.648;24.568;2023-04-07T07:41:43;85442.94;;;4.74;72.05
41312;BME280;27061;41.648;24.568;2023-04-07T07:44:11;85434.72;;;4.80;70.19
41312;BME280;27061;41.648;24.568;2023-04-07T07:46:38;85406.56;;;4.35;65.37
41312;BME280;27061;41.648;24.568;2023-04-07T07:49:05;85433.34;;;4.53;65.80
41312;BME280;27061;41.648;24.568;2023-04-07T07:51:32;85423.69;;;4.35;65.85
41312;BME280;27061;41.648;24.568;2023-04-07T07:54:07;85414.78;;;4.25;65.30
41312;BME280;27061;41.648;24.568;2023-04-07T07:56:35;85382.56;;;4.01;69.15
41312;BME280;27061;41.648;24.568;2023-04-07T07:59:03;85423.69;;;4.11;69.19
41312;BME280;27061;41.648;24.568;2023-04-07T08:01:32;85401.72;;;3.99;63.70
41312;BME280;27061;41.648;24.568;2023-04-07T08:03:59;85397.59;;;3.88;65.27
41312;BME280;27061;41.648;24.568;2023-04-07T08:06:26;85427.81;;;4.22;66.03
41312;BME280;27061;41.648;24.568;2023-04-07T08:08:54;85416.09;;;3.97;68.09
41312;BME280;27061;41.648;24.568;2023-04-07T08:11:22;85367.38;;;3.61;65.45
41312;BME280;27061;41.648;24.568;2023-04-07T08:13:49;85422.31;;;4.12;67.94
41312;BME280;27061;41.648;24.568;2023-04-07T08:16:16;85396.84;;;3.71;64.21
41312;BME280;27061;41.648;24.568;2023-04-07T08:18:45;85438.69;;;3.98;67.82
41312;BME280;27061;41.648;24.568;2023-04-07T08:21:12;85421.50;;;3.73;64.04
41312;BME280;27061;41.648;24.568;2023-04-07T08:23:39;85435.94;;;3.88;67.70
41312;BME280;27061;41.648;24.568;2023-04-07T08:26:06;85438.72;;;4.02;67.44
41312;BME280;27061;41.648;24.568;2023-04-07T08:28:33;85363.19;;;3.34;69.88
41312;BME280;27061;41.648;24.568;2023-04-07T08:31:01;85415.34;;;3.77;69.81
41312;BME280;27061;41.648;24.568;2023-04-07T08:33:28;85394.16;;;3.79;65.77
41312;BME280;27061;41.648;24.568;2023-04-07T08:35:55;85427.09;;;4.10;65.34
41312;BME280;27061;41.648;24.568;2023-04-07T08:38:22;85418.19;;;4.11;70.17
41312;BME280;27061;41.648;24.568;2023-04-07T08:40:54;85420.28;;;4.29;71.20
41312;BME280;27061;41.648;24.568;2023-04-07T08:43:25;85438.78;;;4.49;67.43
41312;BME280;27061;41.648;24.568;2023-04-07T08:45:55;85438.13;;;4.56;69.35
41312;BME280;27061;41.648;24.568;2023-04-07T08:48:23;85409.31;;;4.25;69.65
41312;BME280;27061;41.648;24.568;2023-04-07T08:50:56;85432.66;;;4.54;66.01
41312;BME280;27061;41.648;24.568;2023-04-07T08:53:28;85383.28;;;4.38;70.41
41312;BME280;27061;41.648;24.568;2023-04-07T08:55:58;85397.00;;;4.54;65.77
41312;BME280;27061;41.648;24.568;2023-04-07T08:58:28;85436.06;;;4.89;68.27
41312;BME280;27061;41.648;24.568;2023-04-07T09:00:56;85425.09;;;4.89;70.48
41312;BME280;27061;41.648;24.568;2023-04-07T09:03:25;85436.75;;;5.12;63.11
41312;BME280;27061;41.648;24.568;2023-04-07T09:05:53;85425.09;;;5.09;70.58
41312;BME280;27061;41.648;24.568;2023-04-07T09:08:22;85440.16;;;5.35;68.90
41312;BME280;27061;41.648;24.568;2023-04-07T09:10:49;85430.53;;;5.42;68.41
41312;BME280;27061;41.648;24.568;2023-04-07T09:13:17;85388.75;;;5.15;69.68
41312;BME280;27061;41.648;24.568;2023-04-07T09:15:44;85451.06;;;5.69;69.39
41312;BME280;27061;41.648;24.568;2023-04-07T09:18:12;85444.22;;;5.64;65.78
41312;BME280;27061;41.648;24.568;2023-04-07T09:21:00;85439.41;;;5.69;63.75
41312;BME280;27061;41.648;24.568;2023-04-07T09:23:32;85445.56;;;5.73;63.32
41312;BME280;27061;41.648;24.568;2023-04-07T09:28:45;85429.06;;;5.81;63.78
41312;BME280;27061;41.648;24.568;2023-04-07T09:31:13;85433.19;;;5.80;63.88
41312;BME280;27061;41.648;24.568;2023-04-07T09:33:40;85443.34;;;6.20;60.85
41312;BME280;27061;41.648;24.568;2023-04-07T09:36:07;85400.91;;;5.93;68.26
41312;BME280;27061;41.648;24.568;2023-04-07T09:38:36;85422.09;;;6.07;62.60
41312;BME280;27061;41.648;24.568;2023-04-07T09:41:15;85450.88;;;6.30;63.22
41312;BME280;27061;41.648;24.568;2023-04-07T09:43:44;85457.69;;;6.37;61.05
41312;BME280;27061;41.648;24.568;2023-04-07T09:46:16;85454.91;;;6.49;65.03
41312;BME280;27061;41.648;24.568;2023-04-07T09:48:45;85450.03;;;6.60;61.20
41312;BME280;27061;41.648;24.568;2023-04-07T09:51:14;85443.81;;;6.66;61.56
41312;BME280;27061;41.648;24.568;2023-04-07T09:53:47;85460.28;;;6.72;65.15
41312;BME280;27061;41.648;24.568;2023-04-07T09:56:16;85459.66;;;6.57;53.12
41312;BME280;27061;41.648;24.568;2023-04-07T09:58:45;85457.50;;;6.76;54.47
41312;BME280;27061;41.648;24.568;2023-04-07T10:01:14;85463.06;;;6.64;57.03
41312;BME280;27061;41.648;24.568;2023-04-07T10:03:45;85460.38;;;6.53;56.91
41312;BME280;27061;41.648;24.568;2023-04-07T10:06:14;85466.50;;;6.66;55.30
41312;BME280;27061;41.648;24.568;2023-04-07T10:08:42;85420.56;;;6.44;58.91
41312;BME280;27061;41.648;24.568;2023-04-07T10:11:09;85414.31;;;6.52;61.74
41312;BME280;27061;41.648;24.568;2023-04-07T10:13:38;85468.38;;;6.94;58.52
41312;BME280;27061;41.648;24.568;2023-04-07T10:16:06;85411.50;;;6.60;58.37
41312;BME280;27061;41.648;24.568;2023-04-07T10:18:35;85462.78;;;7.08;54.19
41312;BME280;27061;41.648;24.568;2023-04-07T10:21:04;85458.69;;;7.03;57.71
41312;BME280;27061;41.648;24.568;2023-04-07T10:23:46;85473.81;;;7.08;51.93
41312;BME280;27061;41.648;24.568;2023-04-07T10:26:17;85406.16;;;6.38;52.18
41312;BME280;27061;41.648;24.568;2023-04-07T10:28:48;85474.56;;;6.96;50.90
41312;BME280;27061;41.648;24.568;2023-04-07T10:31:16;85479.53;;;6.72;50.97
41312;BME280;27061;41.648;24.568;2023-04-07T10:33:46;85479.66;;;6.47;52.87
41312;BME280;27061;41.648;24.568;2023-04-07T10:36:15;85429.72;;;5.94;55.16
41312;BME280;27061;41.648;24.568;2023-04-07T10:41:37;85448.13;;;6.32;57.26
41312;BME280;27061;41.648;24.568;2023-04-07T10:44:06;85483.75;;;6.50;55.62
41312;BME280;27061;41.648;24.568;2023-04-07T10:49:27;85445.38;;;6.34;59.76
41312;BME280;27061;41.648;24.568;2023-04-07T10:54:40;85474.81;;;6.54;56.92
41312;BME280;27061;41.648;24.568;2023-04-07T10:57:14;85475.41;;;6.69;59.58
41312;BME280;27061;41.648;24.568;2023-04-07T11:02:38;85470.03;;;6.46;53.30
41312;BME280;27061;41.648;24.568;2023-04-07T11:05:06;85484.34;;;6.75;53.78
41312;BME280;27061;41.648;24.568;2023-04-07T11:07:45;85485.09;;;6.64;53.07
41312;BME280;27061;41.648;24.568;2023-04-07T11:10:12;85483.22;;;6.15;51.87
41312;BME280;27061;41.648;24.568;2023-04-07T11:12:42;85480.47;;;6.21;54.63
41312;BME280;27061;41.648;24.568;2023-04-07T11:15:17;85491.47;;;6.19;51.84
41312;BME280;27061;41.648;24.568;2023-04-07T11:17:44;85429.09;;;5.65;54.43
41312;BME280;27061;41.648;24.568;2023-04-07T11:20:12;85487.97;;;6.29;54.54
41312;BME280;27061;41.648;24.568;2023-04-07T11:22:39;85443.44;;;5.96;52.71
41312;BME280;27061;41.648;24.568;2023-04-07T11:25:19;85434.50;;;5.98;59.09
41312;BME280;27061;41.648;24.568;2023-04-07T11:27:46;85492.22;;;5.96;57.76
41312;BME280;27061;41.648;24.568;2023-04-07T11:30:14;85458.56;;;5.87;56.98
41312;BME280;27061;41.648;24.568;2023-04-07T11:32:41;85466.03;;;6.17;52.94
41312;BME280;27061;41.648;24.568;2023-04-07T11:35:09;85409.84;;;5.73;56.43
41312;BME280;27061;41.648;24.568;2023-04-07T11:37:36;85487.25;;;6.43;57.74
41312;BME280;27061;41.648;24.568;2023-04-07T11:40:03;85490.63;;;6.55;58.37
41312;BME280;27061;41.648;24.568;2023-04-07T11:42:38;85448.06;;;6.38;57.90
41312;BME280;27061;41.648;24.568;2023-04-07T11:45:16;85455.56;;;6.54;62.69
41312;BME280;27061;41.648;24.568;2023-04-07T11:47:43;85489.09;;;6.79;53.50
41312;BME280;27061;41.648;24.568;2023-04-07T11:50:10;85480.16;;;6.82;57.30
41312;BME280;27061;41.648;24.568;2023-04-07T11:52:46;85430.13;;;6.55;57.03
41312;BME280;27061;41.648;24.568;2023-04-07T11:55:21;85482.81;;;6.98;56.59
41312;BME280;27061;41.648;24.568;2023-04-07T11:57:50;85477.19;;;7.15;56.93
41312;BME280;27061;41.648;24.568;2023-04-07T12:00:19;85475.81;;;7.18;54.40
41312;BME280;27061;41.648;24.568;2023-04-07T12:02:46;85428.69;;;6.63;53.64
41312;BME280;27061;41.648;24.568;2023-04-07T12:05:14;85494.38;;;7.17;53.83
41312;BME280;27061;41.648;24.568;2023-04-07T12:07:51;85489.66;;;7.04;54.70
41312;BME280;27061;41.648;24.568;2023-04-07T12:10:20;85483.41;;;7.11;57.25
41312;BME280;27061;41.648;24.568;2023-04-07T12:12:48;85474.50;;;7.09;55.40
41312;BME280;27061;41.648;24.568;2023-04-07T12:15:15;85416.25;;;6.70;59.55
41312;BME280;27061;41.648;24.568;2023-04-07T12:17:47;85410.75;;;6.74;57.48
41312;BME280;27061;41.648;24.568;2023-04-07T12:20:15;85472.22;;;7.33;58.76
41312;BME280;27061;41.648;24.568;2023-04-07T12:22:42;85470.06;;;7.44;57.96
41312;BME280;27061;41.648;24.568;2023-04-07T12:25:09;85437.28;;;7.16;52.38
41312;BME280;27061;41.648;24.568;2023-04-07T12:27:36;85465.25;;;7.45;50.95
41312;BME280;27061;41.648;24.568;2023-04-07T12:30:09;85467.13;;;7.66;55.25
41312;BME280;27061;41.648;24.568;2023-04-07T12:32:44;85468.50;;;7.67;55.59
41312;BME280;27061;41.648;24.568;2023-04-07T12:35:11;85476.66;;;7.80;55.16
41312;BME280;27061;41.648;24.568;2023-04-07T12:37:38;85445.94;;;7.49;49.06
41312;BME280;27061;41.648;24.568;2023-04-07T12:40:06;85422.66;;;7.35;53.33
41312;BME280;27061;41.648;24.568;2023-04-07T12:42:33;85471.88;;;7.76;50.83
41312;BME280;27061;41.648;24.568;2023-04-07T12:45:00;85464.97;;;7.75;52.82
41312;BME280;27061;41.648;24.568;2023-04-07T12:47:29;85413.13;;;7.22;55.17
41312;BME280;27061;41.648;24.568;2023-04-07T12:49:56;85430.84;;;7.42;49.55
41312;BME280;27061;41.648;24.568;2023-04-07T12:52:24;85484.25;;;7.77;50.93
41312;BME280;27061;41.648;24.568;2023-04-07T12:54:51;85428.75;;;7.44;49.92
41312;BME280;27061;41.648;24.568;2023-04-07T12:57:19;85476.59;;;7.86;50.22
41312;BME280;27061;41.648;24.568;2023-04-07T12:59:46;85428.91;;;7.28;51.33
41312;BME280;27061;41.648;24.568;2023-04-07T13:02:13;85456.22;;;7.52;54.11
41312;BME280;27061;41.648;24.568;2023-04-07T13:04:43;85479.38;;;7.84;53.74
41312;BME280;27061;41.648;24.568;2023-04-07T13:07:13;85439.16;;;7.38;52.27
41312;BME280;27061;41.648;24.568;2023-04-07T13:09:40;85460.91;;;7.70;51.30
41312;BME280;27061;41.648;24.568;2023-04-07T13:12:11;85419.97;;;7.29;51.90
41312;BME280;27061;41.648;24.568;2023-04-07T13:14:39;85471.94;;;7.68;51.84
41312;BME280;27061;41.648;24.568;2023-04-07T13:17:25;85474.00;;;7.69;51.57
41312;BME280;27061;41.648;24.568;2023-04-07T13:19:52;85433.63;;;7.40;55.13
41312;BME280;27061;41.648;24.568;2023-04-07T13:22:19;85434.97;;;7.45;53.97
41312;BME280;27061;41.648;24.568;2023-04-07T13:24:48;85420.66;;;7.30;54.21
41312;BME280;27061;41.648;24.568;2023-04-07T13:27:16;85480.13;;;7.76;50.74
41312;BME280;27061;41.648;24.568;2023-04-07T13:29:43;85458.97;;;7.52;52.75
41312;BME280;27061;41.648;24.568;2023-04-07T13:32:10;85471.91;;;7.72;50.95
41312;BME280;27061;41.648;24.568;2023-04-07T13:34:41;85471.19;;;7.76;52.91